logo
Search for airport 
image banner adimage banner adimage banner ad
image banner ad

FLHP - Hippo

Located in Kalubilo, Zambia

ICAO - , IATA -

Data provided by Airmate  

General information

Coordinates: S14°40'19" E26°23'11"
Elevation is 3676 feet MSL.
Magnetic variation is -5° East
View others Airports in North-Western Province

Operational data

Special qualification required
Current time UTC:
Current local time:
Weather at : - ( 0 km )
METAR: KMYP 130624Z AUTO 25017G26KT 10SM SCT043 SCT050 OVC065 01/M08 A3046 RMK AO2
View NOTAMs / SUP AIP / TFR affecting this airport [VIEW]
Communications frequencies: [VIEW]

Runways:

RWY identifierQFULength (ft)Width (ft)SurfaceLDA (ft)
25244°323387DIRT
0764°323387DIRT

Airport contact information

Address: Kalubilo Zambia

Satellite view of FLHP